createdAt,value
2023-05-02T00:00:33.568Z,7.18
2023-05-02T00:03:37.630Z,7.35
2023-05-02T00:06:43.038Z,7.23
2023-05-02T00:09:47.203Z,7.42
2023-05-02T00:12:50.538Z,7.42
2023-05-02T00:15:53.811Z,7.40
2023-05-02T00:18:57.188Z,7.46
2023-05-02T00:22:00.505Z,7.64
2023-05-02T00:25:03.904Z,7.73
2023-05-02T00:28:07.174Z,7.92
2023-05-02T00:31:12.647Z,7.97
2023-05-02T00:34:15.961Z,8.13
2023-05-02T00:37:19.295Z,8.22
2023-05-02T00:40:22.979Z,8.32
2023-05-02T00:43:26.752Z,8.45
2023-05-02T00:46:30.989Z,8.59
2023-05-02T00:49:34.476Z,8.53
2023-05-02T00:52:39.115Z,8.53
2023-05-02T00:55:42.568Z,8.66
2023-05-02T00:58:47.829Z,8.87
2023-05-02T01:02:21.091Z,9.30
2023-05-02T01:05:31.762Z,9.38
2023-05-02T01:08:51.678Z,9.35
2023-05-02T01:12:20.697Z,9.58
2023-05-02T01:15:24.788Z,9.90
2023-05-02T01:18:33.817Z,9.67
2023-05-02T01:21:38.813Z,9.39
2023-05-02T01:25:19.115Z,9.38
2023-05-02T01:28:59.627Z,9.63
2023-05-02T01:32:04.113Z,9.87
2023-05-02T01:35:08.902Z,10.23
2023-05-02T01:38:17.070Z,10.40
2023-05-02T01:41:21.788Z,10.49
2023-05-02T01:44:26.461Z,10.73
2023-05-02T01:47:33.713Z,10.67
2023-05-02T01:50:40.437Z,10.46
2023-05-02T01:53:46.991Z,10.19
2023-05-02T01:56:53.066Z,9.84
2023-05-02T01:59:59.400Z,9.90
2023-05-02T02:03:06.781Z,9.61
2023-05-02T02:06:10.221Z,9.26
2023-05-02T02:09:13.763Z,9.36
2023-05-02T02:12:26.398Z,9.35
2023-05-02T02:15:31.319Z,9.23
2023-05-02T02:18:39.128Z,9.28
2023-05-02T02:21:44.823Z,9.40
2023-05-02T02:24:49.512Z,9.05
2023-05-02T02:27:52.962Z,9.16
2023-05-02T02:30:57.628Z,9.14
2023-05-02T02:34:01.657Z,9.23
2023-05-02T02:37:29.522Z,9.15
2023-05-02T02:40:46.213Z,9.07
2023-05-02T02:44:05.666Z,8.98
2023-05-02T02:47:23.273Z,8.73
2023-05-02T02:50:39.407Z,8.83
2023-05-02T02:54:26.829Z,9.10
2023-05-02T02:57:51.045Z,9.56
2023-05-02T03:00:54.741Z,9.90
2023-05-02T03:03:59.137Z,10.13
2023-05-02T03:07:02.884Z,10.11
2023-05-02T03:10:07.551Z,10.26
2023-05-02T03:13:12.272Z,10.46
2023-05-02T03:16:32.345Z,10.91
2023-05-02T03:19:37.000Z,10.84
2023-05-02T03:22:42.559Z,10.66
2023-05-02T03:25:47.655Z,10.42
2023-05-02T03:28:59.036Z,9.93
2023-05-02T03:32:10.304Z,9.43
2023-05-02T03:35:15.447Z,9.40
2023-05-02T03:38:21.532Z,9.39
2023-05-02T03:41:32.304Z,9.66
2023-05-02T03:44:43.671Z,9.81
2023-05-02T03:47:47.251Z,9.99
2023-05-02T03:50:51.996Z,10.15
2023-05-02T03:53:55.478Z,10.33
2023-05-02T03:56:58.891Z,10.39
2023-05-02T04:00:07.844Z,10.43
2023-05-02T04:03:27.252Z,10.35
2023-05-02T04:06:33.205Z,10.16
2023-05-02T04:09:40.935Z,9.84
2023-05-02T04:12:47.344Z,9.60
2023-05-02T04:15:51.979Z,9.40
2023-05-02T04:18:58.722Z,9.29
2023-05-02T04:22:04.297Z,9.36
2023-05-02T04:25:11.541Z,9.63
2023-05-02T04:28:17.178Z,9.69
2023-05-02T04:31:21.159Z,9.88
2023-05-02T04:34:24.874Z,10.08
2023-05-02T04:37:28.498Z,9.73
2023-05-02T04:40:31.899Z,9.84
2023-05-02T04:43:42.052Z,9.73
2023-05-02T04:46:50.154Z,9.54
2023-05-02T04:49:55.032Z,9.38
2023-05-02T04:52:58.582Z,9.46
2023-05-02T04:56:02.972Z,9.64
2023-05-02T04:59:09.507Z,9.93
2023-05-02T05:02:14.358Z,9.98
2023-05-02T05:05:18.267Z,9.97
2023-05-02T05:08:21.637Z,10.15
2023-05-02T05:11:25.184Z,10.35
2023-05-02T05:14:32.890Z,10.28
2023-05-02T05:17:45.467Z,10.32
2023-05-02T05:21:21.259Z,10.39
2023-05-02T05:24:25.322Z,10.36
2023-05-02T05:27:31.345Z,10.75
2023-05-02T05:30:35.314Z,10.87
2023-05-02T05:33:41.404Z,11.29
2023-05-02T05:36:46.740Z,11.55
2023-05-02T05:39:54.228Z,11.26
2023-05-02T05:43:00.482Z,10.77
2023-05-02T05:46:08.668Z,10.40
2023-05-02T05:49:18.043Z,10.32
2023-05-02T05:52:23.067Z,10.46
2023-05-02T05:55:29.491Z,10.67
2023-05-02T05:58:33.264Z,10.78
2023-05-02T06:01:37.012Z,10.64
2023-05-02T06:04:41.389Z,10.39
2023-05-02T06:07:44.987Z,10.29
2023-05-02T06:10:50.075Z,10.36
2023-05-02T06:13:54.721Z,10.18
2023-05-02T06:17:01.347Z,10.53
2023-05-02T06:20:05.341Z,10.88
2023-05-02T06:23:08.636Z,11.23
2023-05-02T06:26:12.458Z,10.97
2023-05-02T06:29:15.932Z,11.08
2023-05-02T06:32:19.513Z,11.23
2023-05-02T06:35:23.182Z,10.84
2023-05-02T06:38:26.877Z,10.59
2023-05-02T06:41:30.416Z,10.63
2023-05-02T06:44:34.258Z,10.39
2023-05-02T06:47:37.703Z,10.29
2023-05-02T06:50:41.162Z,10.15
2023-05-02T06:53:44.513Z,9.51
2023-05-02T06:56:50.552Z,9.58
2023-05-02T07:00:03.348Z,9.53
2023-05-02T07:03:06.959Z,9.51
2023-05-02T07:06:13.607Z,9.64
2023-05-02T07:09:17.635Z,9.95
2023-05-02T07:12:21.551Z,10.38
2023-05-02T07:15:24.846Z,10.28
2023-05-02T07:18:28.171Z,10.12
2023-05-02T07:21:33.097Z,9.84
2023-05-02T07:24:36.508Z,9.84
2023-05-02T07:27:39.855Z,9.67
2023-05-02T07:30:43.398Z,9.88
2023-05-02T07:33:46.752Z,10.22
2023-05-02T07:36:50.484Z,10.78
2023-05-02T07:39:54.145Z,11.07
2023-05-02T07:42:59.129Z,10.74
2023-05-02T07:46:06.946Z,10.47
2023-05-02T07:49:15.288Z,10.39
2023-05-02T07:52:18.780Z,10.49
2023-05-02T07:55:22.490Z,10.22
2023-05-02T07:58:25.851Z,10.13
2023-05-02T08:01:29.336Z,10.15
2023-05-02T08:04:33.341Z,10.19
2023-05-02T08:07:39.596Z,10.11
2023-05-02T08:10:44.184Z,9.93
2023-05-02T08:13:47.970Z,9.64
2023-05-02T08:16:53.735Z,9.47
2023-05-02T08:20:09.380Z,9.56
2023-05-02T08:23:12.988Z,9.57
2023-05-02T08:26:16.863Z,9.73
2023-05-02T08:29:21.861Z,10.05
2023-05-02T08:32:25.198Z,9.93
2023-05-02T08:35:31.050Z,9.61
2023-05-02T08:38:40.507Z,9.64
2023-05-02T08:41:44.055Z,9.70
2023-05-02T08:44:49.221Z,9.94
2023-05-02T08:47:53.723Z,9.61
2023-05-02T08:50:58.036Z,9.51
2023-05-02T08:54:04.219Z,9.60
2023-05-02T08:57:07.978Z,9.53
2023-05-02T09:00:12.665Z,9.38
2023-05-02T09:03:32.573Z,9.22
2023-05-02T09:06:37.650Z,9.10
2023-05-02T09:09:41.353Z,9.00
2023-05-02T09:12:45.003Z,9.08
2023-05-02T09:16:11.223Z,9.21
2023-05-02T09:19:38.336Z,9.16
2023-05-02T09:22:53.758Z,9.10
2023-05-02T09:25:57.134Z,9.19
2023-05-02T09:29:02.747Z,9.07
2023-05-02T09:32:07.687Z,9.12
2023-05-02T09:35:11.618Z,9.00
2023-05-02T09:38:24.031Z,8.89
2023-05-02T09:41:45.248Z,8.83
2023-05-02T09:44:49.598Z,8.94
2023-05-02T09:47:55.549Z,8.94
2023-05-02T09:50:59.140Z,8.80
2023-05-02T09:54:02.954Z,8.87
2023-05-02T09:57:07.880Z,9.02
2023-05-02T10:00:11.778Z,8.94
2023-05-02T10:03:19.535Z,8.75
2023-05-02T10:06:23.398Z,8.63
2023-05-02T10:09:30.671Z,8.68
2023-05-02T10:12:34.003Z,8.60
2023-05-02T10:15:44.068Z,8.57
2023-05-02T10:18:57.712Z,8.70
2023-05-02T10:22:02.046Z,8.67
2023-05-02T10:25:05.884Z,8.64
2023-05-02T10:28:11.576Z,8.57
2023-05-02T10:31:16.719Z,8.52
2023-05-02T10:34:20.385Z,8.52
2023-05-02T10:37:26.833Z,8.52
2023-05-02T10:40:30.765Z,8.38
2023-05-02T10:43:36.550Z,8.47
2023-05-02T10:46:44.055Z,8.43
2023-05-02T10:49:56.120Z,8.38
2023-05-02T10:52:59.990Z,8.25
2023-05-02T10:56:29.314Z,8.12
2023-05-02T10:59:41.624Z,8.01
2023-05-02T11:02:50.702Z,8.02
2023-05-02T11:06:10.627Z,7.99
2023-05-02T11:09:18.748Z,7.81
2023-05-02T11:12:48.205Z,7.74
2023-05-02T11:15:58.619Z,7.62
2023-05-02T11:19:19.341Z,7.50
2023-05-02T11:22:24.724Z,7.39
2023-05-02T11:25:52.578Z,7.28
2023-05-02T11:29:01.769Z,7.15
2023-05-02T11:32:09.432Z,7.12
2023-05-02T11:35:35.225Z,7.00
2023-05-02T11:38:40.034Z,6.90
2023-05-02T11:41:48.212Z,6.84
2023-05-02T11:45:02.044Z,6.79
2023-05-02T11:48:07.752Z,6.66
2023-05-02T11:51:11.351Z,6.60
2023-05-02T11:54:22.544Z,6.43
2023-05-02T11:57:26.193Z,6.30
2023-05-02T12:00:29.673Z,6.21
2023-05-02T12:03:34.555Z,6.14
2023-05-02T12:06:38.104Z,6.02
2023-05-02T12:09:58.402Z,5.94
2023-05-02T12:13:07.349Z,5.86
2023-05-02T12:16:11.916Z,5.80
2023-05-02T12:19:15.396Z,5.77
2023-05-02T12:22:18.897Z,5.67
2023-05-02T12:25:22.891Z,5.64
2023-05-02T12:28:26.334Z,5.59
2023-05-02T12:31:31.909Z,5.53
2023-05-02T12:34:36.920Z,5.50
2023-05-02T12:37:41.035Z,5.43
2023-05-02T12:40:52.483Z,5.38
2023-05-02T12:43:55.796Z,5.32
2023-05-02T12:47:03.373Z,5.28
2023-05-02T12:50:07.344Z,5.22
2023-05-02T12:53:10.699Z,5.19
2023-05-02T12:56:14.710Z,5.18
2023-05-02T12:59:28.212Z,5.14
2023-05-02T13:02:31.723Z,5.14
2023-05-02T13:05:36.037Z,5.09
2023-05-02T13:08:40.111Z,5.07
2023-05-02T13:11:43.495Z,4.97
2023-05-02T13:14:46.848Z,4.92
2023-05-02T13:17:53.194Z,4.88
2023-05-02T13:20:56.666Z,4.84
2023-05-02T13:24:00.177Z,4.85
2023-05-02T13:27:03.452Z,4.83
2023-05-02T13:30:09.199Z,4.77
2023-05-02T13:33:13.114Z,4.77
2023-05-02T13:36:16.502Z,4.70
2023-05-02T13:39:20.257Z,4.70
2023-05-02T13:42:23.696Z,4.69
2023-05-02T13:45:27.349Z,4.64
2023-05-02T13:48:30.767Z,4.62
2023-05-02T13:51:34.111Z,4.55
2023-05-02T13:54:37.837Z,4.50
2023-05-02T13:57:41.192Z,4.49
2023-05-02T14:00:44.580Z,4.44
2023-05-02T14:03:48.111Z,4.39
2023-05-02T14:06:51.597Z,4.36
2023-05-02T14:09:54.947Z,4.31
2023-05-02T14:12:58.218Z,4.29
2023-05-02T14:16:01.615Z,4.25
2023-05-02T14:19:04.944Z,4.24
2023-05-02T14:22:08.302Z,4.17
2023-05-02T14:25:11.606Z,4.15
2023-05-02T14:28:15.012Z,4.07
2023-05-02T14:31:18.278Z,4.04
2023-05-02T14:34:22.639Z,3.95
2023-05-02T14:37:25.972Z,3.91
2023-05-02T14:40:29.661Z,3.86
2023-05-02T14:43:32.993Z,3.79
2023-05-02T14:46:36.420Z,3.76
2023-05-02T14:49:39.758Z,3.74
2023-05-02T14:52:43.303Z,3.73
2023-05-02T14:55:46.941Z,3.67
2023-05-02T14:58:50.799Z,3.62
2023-05-02T15:01:54.183Z,3.60
2023-05-02T15:04:57.477Z,3.62
2023-05-02T15:08:02.129Z,3.55
2023-05-02T15:11:05.494Z,3.53
2023-05-02T15:14:08.771Z,3.55
2023-05-02T15:17:12.016Z,3.49
2023-05-02T15:20:15.363Z,3.46
2023-05-02T15:23:18.942Z,3.45
2023-05-02T15:26:22.205Z,3.42
2023-05-02T15:29:25.538Z,3.38
2023-05-02T15:32:29.318Z,3.32
2023-05-02T15:35:32.700Z,3.32
2023-05-02T15:38:39.938Z,3.31
2023-05-02T15:41:43.450Z,3.29
2023-05-02T15:44:46.658Z,3.25
2023-05-02T15:47:50.236Z,3.27
2023-05-02T15:50:53.646Z,3.24
2023-05-02T15:53:56.990Z,3.24
2023-05-02T15:57:00.326Z,3.24
2023-05-02T16:00:03.975Z,3.19
2023-05-02T16:03:07.527Z,3.18
2023-05-02T16:06:10.836Z,3.12
2023-05-02T16:09:14.147Z,3.03
2023-05-02T16:12:17.475Z,3.00
2023-05-02T16:15:24.133Z,2.93
2023-05-02T16:18:30.284Z,2.89
2023-05-02T16:21:33.575Z,2.84
2023-05-02T16:24:36.982Z,2.80
2023-05-02T16:27:40.903Z,2.76
2023-05-02T16:30:44.143Z,2.76
2023-05-02T16:33:48.023Z,2.72
2023-05-02T16:36:52.182Z,2.67
2023-05-02T16:39:55.669Z,2.70
2023-05-02T16:42:59.110Z,2.67
2023-05-02T16:46:04.072Z,2.69
2023-05-02T16:49:07.318Z,2.67
2023-05-02T16:52:10.650Z,2.66
2023-05-02T16:55:13.942Z,2.62
2023-05-02T16:58:17.457Z,2.59
2023-05-02T17:01:20.914Z,2.57
2023-05-02T17:04:24.350Z,2.60
2023-05-02T17:07:27.720Z,2.57
2023-05-02T17:10:31.126Z,2.53
2023-05-02T17:13:35.480Z,2.53
2023-05-02T17:16:38.864Z,2.52
2023-05-02T17:19:43.606Z,2.53
2023-05-02T17:22:47.057Z,2.48
2023-05-02T17:25:51.540Z,2.46
2023-05-02T17:28:54.838Z,2.44
2023-05-02T17:32:00.816Z,2.44
2023-05-02T17:35:04.259Z,2.39
2023-05-02T17:38:07.673Z,2.32
2023-05-02T17:41:11.088Z,2.31
2023-05-02T17:44:14.442Z,2.29
2023-05-02T17:47:18.783Z,2.26
2023-05-02T17:50:22.355Z,2.20
2023-05-02T17:53:26.898Z,2.20
2023-05-02T17:56:31.404Z,2.20
2023-05-02T17:59:34.862Z,2.11
2023-05-02T18:02:39.028Z,2.11
2023-05-02T18:05:44.759Z,2.11
2023-05-02T18:08:48.234Z,2.11
2023-05-02T18:11:51.501Z,2.06
2023-05-02T18:14:54.800Z,2.06
2023-05-02T18:17:58.251Z,2.04
2023-05-02T18:21:01.550Z,2.03
2023-05-02T18:24:05.722Z,2.00
2023-05-02T18:27:08.992Z,2.00
2023-05-02T18:30:15.160Z,1.97
2023-05-02T18:33:27.603Z,1.93
2023-05-02T18:36:31.038Z,1.87
2023-05-02T18:39:35.411Z,1.83
2023-05-02T18:42:38.842Z,1.84
2023-05-02T18:45:42.423Z,1.77
2023-05-02T18:48:45.785Z,1.80
2023-05-02T18:51:49.123Z,1.76
2023-05-02T18:54:52.369Z,1.73
2023-05-02T18:57:55.645Z,1.70
2023-05-02T19:00:58.925Z,1.67
2023-05-02T19:04:03.519Z,1.66
2023-05-02T19:07:06.768Z,1.63
2023-05-02T19:10:11.706Z,1.63
2023-05-02T19:13:15.325Z,1.66
2023-05-02T19:16:18.639Z,1.63
2023-05-02T19:19:22.037Z,1.63
2023-05-02T19:22:25.351Z,1.58
2023-05-02T19:25:28.614Z,1.56
2023-05-02T19:28:31.942Z,1.53
2023-05-02T19:31:35.295Z,1.51
2023-05-02T19:34:38.726Z,1.51
2023-05-02T19:37:41.997Z,1.46
2023-05-02T19:40:45.312Z,1.45
2023-05-02T19:43:48.853Z,1.45
2023-05-02T19:46:52.241Z,1.38
2023-05-02T19:49:57.492Z,1.36
2023-05-02T19:53:02.289Z,1.28
2023-05-02T19:56:07.867Z,1.27
2023-05-02T19:59:11.236Z,1.25
2023-05-02T20:02:14.592Z,1.25
2023-05-02T20:05:17.908Z,1.25
2023-05-02T20:08:23.338Z,1.25
2023-05-02T20:11:26.975Z,1.18
2023-05-02T20:14:30.325Z,1.17
2023-05-02T20:17:33.672Z,1.15
2023-05-02T20:20:36.906Z,1.17
2023-05-02T20:23:43.887Z,1.15
2023-05-02T20:26:47.182Z,1.13
2023-05-02T20:29:52.512Z,1.09
2023-05-02T20:32:59.442Z,1.13
2023-05-02T20:36:07.549Z,1.11
2023-05-02T20:39:13.963Z,1.08
2023-05-02T20:42:23.789Z,1.07
2023-05-02T20:45:27.447Z,1.04
2023-05-02T20:48:30.784Z,1.04
2023-05-02T20:51:34.276Z,1.01
2023-05-02T20:54:37.489Z,0.98
2023-05-02T20:57:40.808Z,1.03
2023-05-02T21:00:44.146Z,1.03
2023-05-02T21:03:47.487Z,1.04
2023-05-02T21:06:51.117Z,1.04
2023-05-02T21:09:54.540Z,1.03
2023-05-02T21:12:57.926Z,1.08
2023-05-02T21:16:01.382Z,1.08
2023-05-02T21:19:04.729Z,1.13
2023-05-02T21:22:08.105Z,1.18
2023-05-02T21:25:11.716Z,1.28
2023-05-02T21:28:15.043Z,1.31
2023-05-02T21:31:18.438Z,1.32
2023-05-02T21:34:21.895Z,1.35
2023-05-02T21:37:25.293Z,1.42
2023-05-02T21:40:30.024Z,1.49
2023-05-02T21:43:37.654Z,1.52
2023-05-02T21:46:41.621Z,1.59
2023-05-02T21:49:44.892Z,1.63
2023-05-02T21:52:48.199Z,1.60
2023-05-02T21:55:51.539Z,1.69
2023-05-02T21:58:54.953Z,1.74
2023-05-02T22:01:58.407Z,1.87
2023-05-02T22:05:02.051Z,1.98
2023-05-02T22:08:05.617Z,2.04
2023-05-02T22:11:10.121Z,2.07
2023-05-02T22:14:14.044Z,2.17
2023-05-02T22:17:19.103Z,2.25
2023-05-02T22:20:23.520Z,2.44
2023-05-02T22:23:26.850Z,2.53
2023-05-02T22:26:30.289Z,3.05
2023-05-02T22:29:33.815Z,5.71
2023-05-02T22:32:37.546Z,8.02
2023-05-02T22:35:41.418Z,9.90
2023-05-02T22:38:44.824Z,11.25
2023-05-02T22:41:48.189Z,12.22
2023-05-02T22:44:54.367Z,12.93
2023-05-02T22:47:58.339Z,13.45
2023-05-02T22:51:01.982Z,14.21
2023-05-02T22:54:06.546Z,14.79
2023-05-02T22:57:09.909Z,15.89
2023-05-02T23:00:13.877Z,16.48
2023-05-02T23:03:17.269Z,17.25
2023-05-02T23:06:21.072Z,17.59
2023-05-02T23:09:24.592Z,18.27
2023-05-02T23:12:28.703Z,18.97
2023-05-02T23:15:32.148Z,19.44
2023-05-02T23:18:35.726Z,19.38
2023-05-02T23:21:39.121Z,19.59
2023-05-02T23:24:42.716Z,19.45
2023-05-02T23:27:46.368Z,20.22
2023-05-02T23:30:50.002Z,19.45
2023-05-02T23:33:53.720Z,19.70
2023-05-02T23:36:57.035Z,18.70
2023-05-02T23:40:01.913Z,18.77
2023-05-02T23:43:05.894Z,18.24
2023-05-02T23:46:09.211Z,16.57
2023-05-02T23:49:12.579Z,15.79
2023-05-02T23:52:15.865Z,16.15
2023-05-02T23:55:19.197Z,15.35
2023-05-02T23:58:22.529Z,15.53
